Bridgewater, New Hampshire
Current Conditions -  °F | °C
As of 12:35 PM on Thursday 27 Nov 2014 (Local Time) from K1P1 Reporting Station
Overcast Overcast  
Wind Chill: 25°   Ceiling: 3000
Heat Index: 32°   Visibility: 10mi
Dew Point: 26°   Wind: 8mph
Humidity: 80%   Direction: 280°W
Pressure: 29.93"   Gusts: NA
Location:  43.8032°N, 71.7266°W
Report Text: K1P1 271735Z AUTO 28007KT 10SM OVC030 00/M03 A2993 RMK AO2 T10011031
Loading
Personal Weather Stations






























Interactive Weather Map New forecast layout! Learn more

10-Day Weather Forecast

Advertisements
Track Severe Weather on mobile